Horam, United Kingdom
Current Conditions -  °F | °C
As of 4:20 PM on Friday 21 Nov 2014 (Local Time) from EGKK Reporting Station
Haze Haze  
Wind Chill: 42°   Ceiling: 800
Heat Index: 46°   Visibility: 2.5mi
Dew Point: 45°   Wind: 9mph
Humidity: 93%   Direction: 100°E
Pressure: 29.97"   Gusts: NA
Location:  50.94°N, 0.24°E
Report Text: EGKK 211620Z 10008KT 4000 HZ BKN008 08/07 Q1015
Loading
Personal Weather Stations






























Interactive Weather Map New forecast layout! Learn more

10-Day Weather Forecast

Advertisements
Track Severe Weather on mobile